首页
METAR-TAF:

METAR-TAF

机场 :

金格羅伊, 澳大利亚

纬度: 26-34-48S, 经度: 151-50-30E, 海拔: 455米

当前天气观测

该预报发布于1小时和0分钟前的01:00 UTC
风速2节,风向东南
温度 20°C
湿度 53%
气压 1023 hPa
能见度10公里或以上

METAR: YKRY 310100Z AUTO 13002KT 9999 // NCD 20/10 Q1023

时间: 12:00 (02:00 UTC)


TAF: 丢失

超过4000个机场的气象观测和天气预报(METAR&TAF报告)。

可查询的气象台以黄色和红色小点在地图上表示。

将鼠标移到小点上方,可查看气象台名称。

然后点击查看天气观测和预报。

如需切换地图:点击带黑十字的绿色按钮放大地图;点击带横线的绿色按钮缩小地图;或者点击绿色箭头查看邻近地区的地图。


METAR-TAF: